Latest Weather Observations for Warruwi

IDD60801

Issued at 6:05 pm CST Thursday 2 October 2014 (issued every 30 minutes, with the page automatically refreshed every 10 minutes)

About weather observations | Map of weather stations | Latest weather observations for NT | Other Formats
Station Details ID: 014401 Name: WARRUWI AIRPORT Lat: -11.65 Lon: 133.38 Height: 19.2 m
Data from the previous 72 hours. | See also: Recent months at Warruwi
Date/Time
CST
Temp
°C
App
Temp
°C
Dew
Point
Rel
Hum
%
Delta-T
°C
Wind Press
QNH
hPa
Press
MSL
hPa
Rain
since 9 am
mm
Dir
 
Spd
km/h
Gust
km/h
Spd
kts
Gust
kts
02/06:00pm 28.0 29.4 18.7 57 6.0 NE 9 15 5 8 1010.4 1010.2 0.0
02/05:30pm 28.6 29.0 18.1 53 6.7 NE 13 19 7 10 1010.2 1010.0 0.0
02/05:00pm 29.1 30.4 18.5 52 6.8 NE 9 17 5 9 1010.0 1009.8 0.0
02/04:30pm 29.8 30.4 17.6 48 7.8 ENE 11 26 6 14 1010.1 1009.9 0.0
02/04:00pm 30.0 30.4 19.1 52 7.1 E 15 24 8 13 1010.4 1010.2 0.0
02/03:30pm 29.3 29.5 19.3 55 6.5 E 17 26 9 14 1010.7 1010.5 0.0
02/03:00pm 29.5 30.6 20.4 58 6.0 E 15 24 8 13 1011.1 1010.9 0.0
02/02:30pm 29.8 29.9 20.4 57 6.2 E 20 30 11 16 1011.4 1011.2 0.0
02/02:00pm 29.5 29.2 19.2 54 6.7 E 19 30 10 16 1011.7 1011.5 0.0
02/01:30pm 28.9 28.3 18.9 54 6.5 E 20 28 11 15 1012.2 1012.0 0.0
02/01:00pm 29.4 28.1 19.1 54 6.7 E 24 32 13 17 1012.5 1012.3 0.0
02/12:30pm 29.7 28.3 18.8 52 7.0 E 24 33 13 18 1012.9 1012.7 0.0
02/12:00pm 29.7 28.6 19.4 54 6.7 E 24 30 13 16 1013.3 1013.1 0.0
02/11:30am 30.1 29.8 19.5 53 6.9 E 20 28 11 15 1013.7 1013.5 0.0
02/11:00am 29.0 28.9 19.6 57 6.1 E 19 24 10 13 1014.1 1013.9 0.0
02/10:30am 28.8 29.8 21.1 63 5.1 E 17 24 9 13 1014.2 1014.0 0.0
02/10:00am 28.4 29.2 21.4 66 4.7 ESE 19 22 10 12 1014.4 1014.2 0.0
02/09:30am 28.3 29.8 21.3 65 4.7 ESE 15 22 8 12 1014.4 1014.2 0.0
02/09:00am 27.6 29.6 21.6 70 4.0 ESE 13 22 7 12 1014.4 1014.2 0.0
02/08:30am 27.3 29.3 22.3 74 3.4 ESE 15 20 8 11 1014.4 1014.2 0.0
02/08:00am 26.7 29.0 22.1 76 3.1 SE 13 20 7 11 1014.4 1014.2 0.0
02/07:30am 25.6 28.2 21.9 80 2.5 SE 11 17 6 9 1014.0 1013.8 0.0
02/07:00am 25.1 27.4 22.0 83 2.1 SE 13 19 7 10 1013.5 1013.3 0.0
02/06:30am 25.8 27.2 21.0 75 3.2 E 15 20 8 11 1013.0 1012.8 0.0
02/06:00am 25.9 28.4 21.8 78 2.7 E 11 19 6 10 1012.8 1012.6 0.0
02/05:30am 25.6 28.4 21.5 78 2.7 ENE 9 19 5 10 1012.4 1012.2 0.0
02/05:00am 25.4 28.2 21.5 79 2.6 ENE 9 19 5 10 1012.0 1011.8 0.0
02/04:30am 25.4 28.3 21.7 80 2.5 ENE 9 17 5 9 1011.7 1011.5 0.0
02/04:00am 25.3 28.5 21.6 80 2.5 ENE 7 13 4 7 1011.4 1011.2 0.0
02/03:30am 25.5 28.3 21.6 79 2.6 ENE 9 15 5 8 1011.4 1011.2 0.0
02/03:00am 25.6 28.8 21.7 79 2.6 ENE 7 15 4 8 1011.5 1011.3 0.0
02/02:30am 25.7 29.0 21.8 79 2.6 ENE 7 13 4 7 1011.6 1011.4 0.0
02/02:00am 25.9 28.1 21.8 78 2.7 E 13 20 7 11 1012.1 1011.9 0.0
02/01:30am 26.0 28.1 21.7 77 2.9 E 13 20 7 11 1012.4 1012.2 0.0
02/01:00am 26.0 28.1 21.7 77 2.9 ENE 13 20 7 11 1012.5 1012.3 0.0
02/12:30am 25.9 29.1 21.6 77 2.9 ENE 7 13 4 7 1012.6 1012.4 0.0
02/12:00am 26.2 28.5 21.4 75 3.2 E 11 20 6 11 1013.0 1012.8 0.0
 
Date/Time
CST
Temp
°C
App
Temp
°C
Dew
Point
Rel
Hum
%
Delta-T
°C
Wind Press
QNH
hPa
Press
MSL
hPa
Rain
since 9 am
mm
Dir
 
Spd
km/h
Gust
km/h
Spd
kts
Gust
kts
01/11:30pm 26.2 28.6 21.6 76 3.1 E 11 22 6 12 1013.4 1013.2 0.0
01/11:00pm 25.9 28.8 21.8 78 2.7 ENE 9 17 5 9 1013.3 1013.1 0.0
01/10:30pm 25.9 29.2 21.8 78 2.7 ENE 7 13 4 7 1013.3 1013.1 0.0
01/10:00pm 25.9 29.1 21.3 76 3.0 ENE 6 7 3 4 1013.3 1013.1 0.0
01/09:30pm 25.9 29.3 21.6 77 2.9 ENE 6 7 3 4 1013.1 1012.9 0.0
01/09:00pm 25.8 29.2 21.0 75 3.2 NE 4 6 2 3 1012.5 1012.3 0.0
01/08:30pm 25.9 29.3 20.9 74 3.3 NE 4 6 2 3 1012.0 1011.8 0.0
01/08:00pm 26.0 29.3 20.8 73 3.4 NE 4 7 2 4 1011.6 1011.4 0.0
01/07:30pm 26.2 29.4 20.5 71 3.7 N 4 7 2 4 1011.4 1011.2 0.0
01/07:00pm 26.4 29.0 20.5 70 3.9 NNE 7 13 4 7 1011.1 1010.9 0.0
01/06:30pm 26.7 28.5 20.3 68 4.2 NE 11 24 6 13 1010.8 1010.6 0.0
01/06:00pm 27.3 28.9 19.9 64 4.8 NE 11 19 6 10 1010.6 1010.4 0.0
01/05:30pm 27.8 28.9 19.6 61 5.3 NE 13 24 7 13 1010.4 1010.2 0.0
01/05:00pm 28.7 29.2 19.3 56 6.1 NE 15 24 8 13 1010.3 1010.1 0.0
01/04:30pm 29.3 29.8 19.3 55 6.5 NE 15 28 8 15 1010.4 1010.2 0.0
01/04:00pm 29.4 30.1 19.7 56 6.3 NE 15 28 8 15 1010.6 1010.4 0.0
01/03:30pm 29.6 29.5 18.7 52 7.0 NE 17 26 9 14 1010.8 1010.6 0.0
01/03:00pm 29.6 29.4 19.3 54 6.7 ENE 19 28 10 15 1011.1 1010.9 0.0
01/02:30pm 29.4 29.0 18.8 53 6.8 E 19 28 10 15 1011.6 1011.4 0.0
01/02:00pm 29.9 29.4 19.0 52 7.1 E 20 30 11 16 1012.0 1011.8 0.0
01/01:30pm 29.6 29.1 19.0 53 6.9 E 20 30 11 16 1012.4 1012.2 0.0
01/01:00pm 29.4 29.0 18.8 53 6.8 ENE 19 28 10 15 1012.9 1012.7 0.0
01/12:30pm 30.2 29.8 18.9 50 7.3 E 19 28 10 15 1013.4 1013.2 0.0
01/12:00pm 29.4 28.8 18.8 53 6.8 E 20 30 11 16 1014.1 1013.9 0.0
01/11:30am 29.5 29.4 19.5 55 6.5 E 19 28 10 15 1014.5 1014.3 0.0
01/11:00am 29.6 28.9 18.7 52 7.0 E 20 32 11 17 1014.8 1014.6 0.0
01/10:30am 30.3 28.4 17.7 46 8.0 E 24 32 13 17 1014.9 1014.7 0.0
01/10:00am 29.7 28.3 18.8 52 7.0 E 24 33 13 18 1014.9 1014.7 0.0
01/09:30am 28.6 28.8 20.6 62 5.3 E 20 35 11 19 1014.9 1014.7 0.0
01/09:00am 27.8 28.3 21.1 67 4.4 ESE 20 26 11 14 1014.8 1014.6 0.0
01/08:30am 27.0 27.9 20.8 69 4.1 E 17 22 9 12 1014.6 1014.4 0.0
01/08:00am 26.7 27.4 21.2 72 3.6 ESE 19 26 10 14 1014.3 1014.1 0.0
01/07:30am 26.1 27.1 21.1 74 3.3 ESE 17 20 9 11 1014.0 1013.8 0.0
01/07:00am 25.0 26.2 20.7 77 2.8 ESE 15 20 8 11 1013.4 1013.2 0.0
01/06:30am 24.6 25.3 20.5 78 2.7 ESE 17 24 9 13 1013.1 1012.9 0.0
01/06:00am 24.6 24.8 20.1 76 2.9 ESE 19 28 10 15 1012.6 1012.4 0.0
01/05:30am 25.0 24.8 19.8 73 3.4 ESE 20 28 11 15 1012.5 1012.3 0.0
01/05:00am 25.4 25.2 19.8 71 3.6 E 20 28 11 15 1012.4 1012.2 0.0
01/04:30am 25.4 24.7 19.5 70 3.8 ESE 22 30 12 16 1012.2 1012.0 0.0
01/04:00am 25.5 25.1 20.1 72 3.5 ESE 22 30 12 16 1012.2 1012.0 0.0
01/03:30am 25.8 25.5 20.4 72 3.5 ESE 22 32 12 17 1012.4 1012.2 0.0
01/03:00am 26.2 26.5 20.8 72 3.6 ESE 20 26 11 14 1012.3 1012.1 0.0
01/02:30am 26.6 26.8 21.4 73 3.5 E 22 30 12 16 1012.5 1012.3 0.0
01/02:00am 26.4 26.9 20.9 72 3.6 E 19 28 10 15 1012.6 1012.4 0.0
01/01:30am 26.5 27.0 20.8 71 3.8 E 19 28 10 15 1012.7 1012.5 0.0
01/01:00am 26.4 27.5 20.5 70 3.9 E 15 22 8 12 1012.8 1012.6 0.0
01/12:30am 26.4 26.7 20.3 69 4.0 E 19 28 10 15 1013.2 1013.0 0.0
01/12:00am 26.5 26.8 20.3 68 4.1 E 19 32 10 17 1013.6 1013.4 0.0
 
Date/Time
CST
Temp
°C
App
Temp
°C
Dew
Point
Rel
Hum
%
Delta-T
°C
Wind Press
QNH
hPa
Press
MSL
hPa
Rain
since 9 am
mm
Dir
 
Spd
km/h
Gust
km/h
Spd
kts
Gust
kts
30/11:30pm 26.5 26.8 20.3 68 4.1 E 19 28 10 15 1013.8 1013.6 0.0
30/11:00pm 26.5 26.7 20.1 68 4.2 E 19 32 10 17 1014.0 1013.8 0.0
30/10:30pm 26.6 27.2 20.2 68 4.2 E 17 26 9 14 1013.9 1013.7 0.0
30/10:00pm 26.5 27.0 20.8 71 3.8 E 19 28 10 15 1013.9 1013.7 0.0
30/09:30pm 26.5 27.4 20.8 71 3.8 E 17 22 9 12 1013.7 1013.5 0.0
30/09:00pm 26.5 26.9 20.6 70 3.9 E 19 30 10 16 1013.4 1013.2 0.0
30/08:30pm 26.4 28.0 20.7 71 3.7 E 13 22 7 12 1013.1 1012.9 0.0
30/08:00pm 26.3 28.8 21.1 73 3.4 ENE 9 15 5 8 1012.6 1012.4 0.0
30/07:30pm 26.3 28.3 20.8 71 3.6 ENE 11 20 6 11 1012.2 1012.0 0.0
30/07:00pm 26.4 28.4 20.7 71 3.7 ENE 11 19 6 10 1011.9 1011.7 0.0
30/06:30pm 26.7 28.8 21.0 71 3.8 ENE 11 24 6 13 1011.5 1011.3 0.0
30/06:00pm 27.1 28.9 20.4 66 4.4 ENE 11 19 6 10 1011.3 1011.1 0.0
30/05:30pm 27.8 28.7 20.1 63 5.0 ENE 15 26 8 14 1011.0 1010.8 0.0
30/05:00pm 28.3 29.2 20.8 63 5.0 ENE 17 28 9 15 1011.0 1010.8 0.0
30/04:30pm 28.4 29.0 20.2 61 5.4 ENE 17 30 9 16 1011.0 1010.8 0.0
30/04:00pm 29.3 30.4 20.5 59 5.8 ENE 15 26 8 14 1011.2 1011.0 0.0
30/03:30pm 28.9 29.4 20.1 59 5.8 ENE 17 32 9 17 1011.4 1011.2 0.0
30/03:00pm 29.8 30.0 20.1 56 6.4 ENE 19 30 10 16 1011.7 1011.5 0.0
30/02:30pm 29.2 28.9 19.5 56 6.3 E 20 32 11 17 1011.8 1011.6 0.0
30/02:00pm 29.5 29.5 19.8 56 6.4 ENE 19 33 10 18 1012.1 1011.9 0.0
30/01:30pm 29.4 29.2 19.7 56 6.3 E 20 30 11 16 1012.5 1012.3 0.0
30/01:00pm 29.8 29.9 20.4 57 6.2 E 20 30 11 16 1012.9 1012.7 0.0
30/12:30pm 29.2 29.6 19.8 57 6.2 ENE 17 26 9 14 1013.7 1013.5 0.0
30/12:00pm 29.4 29.9 20.0 57 6.2 E 17 26 9 14 1014.3 1014.1 0.0
30/11:30am 29.4 29.7 20.3 58 6.0 E 19 24 10 13 1014.8 1014.6 0.0
30/11:00am 29.0 29.1 19.9 58 6.0 E 19 28 10 15 1015.1 1014.9 0.0
30/10:30am 29.3 29.7 20.7 59 5.7 E 19 28 10 15 1015.2 1015.0 0.0
30/10:00am 29.2 30.0 20.6 59 5.7 E 17 28 9 15 1015.5 1015.4 0.0
30/09:30am 28.3 28.9 20.3 62 5.3 E 17 28 9 15 1015.3 1015.1 0.0
30/09:00am 27.8 28.1 20.4 64 4.9 E 19 28 10 15 1015.2 1015.0 0.0
30/08:30am 27.9 28.3 19.9 61 5.2 E 17 26 9 14 1015.1 1014.9 0.0
30/08:00am 26.8 29.1 22.0 75 3.2 E 13 19 7 10 1014.9 1014.7 0.0
30/07:30am 26.2 28.6 21.6 76 3.1 ESE 11 20 6 11 1014.5 1014.3 0.0
30/07:00am 26.4 26.8 19.8 67 4.3 E 17 30 9 16 1014.3 1014.1 0.0
30/06:30am 26.1 26.7 20.2 70 3.8 E 17 28 9 15 1014.1 1013.9 0.0
30/06:00am 26.0 26.5 20.1 70 3.8 E 17 26 9 14 1013.8 1013.6 0.0
30/05:30am 25.9 26.9 20.2 71 3.7 E 15 24 8 13 1013.4 1013.2 0.0
30/05:00am 25.9 26.7 20.7 73 3.4 E 17 28 9 15 1013.0 1012.8 0.0
30/04:30am 26.1 26.6 20.9 73 3.4 E 19 26 10 14 1012.8 1012.6 0.0
30/04:00am 26.1 27.1 21.1 74 3.3 E 17 30 9 16 1012.7 1012.5 0.0
30/03:30am 26.1 27.0 21.5 76 3.1 E 19 28 10 15 1012.6 1012.4 0.0
30/03:00am 26.2 27.5 21.6 76 3.1 E 17 32 9 17 1012.5 1012.3 0.0
30/02:30am 26.2 28.1 22.1 78 2.7 ENE 15 26 8 14 1012.4 1012.2 0.0
30/02:00am 26.3 27.6 21.7 76 3.1 ENE 17 28 9 15 1012.5 1012.3 0.0
30/01:30am 26.4 28.1 22.3 78 2.8 ENE 17 28 9 15 1012.6 1012.4 0.0
30/01:00am 26.2 28.6 22.3 79 2.6 ENE 13 22 7 12 1012.8 1012.6 0.0
30/12:30am 26.2 28.6 22.3 79 2.6 ENE 13 22 7 12 1013.2 1013.0 0.0
30/12:00am 26.3 28.7 22.2 78 2.8 E 13 20 7 11 1013.2 1013.0 0.0
 
Date/Time
CST
Temp
°C
App
Temp
°C
Dew
Point
Rel
Hum
%
Delta-T
°C
Wind Press
QNH
hPa
Press
MSL
hPa
Rain
since 9 am
mm
Dir
 
Spd
km/h
Gust
km/h
Spd
kts
Gust
kts
29/11:30pm 26.4 28.8 22.3 78 2.8 ENE 13 22 7 12 1013.4 1013.2 0.0
29/11:00pm 26.4 28.7 22.0 77 2.9 ENE 13 22 7 12 1013.5 1013.3 0.0
29/10:30pm 26.4 27.8 21.8 76 3.1 ENE 17 24 9 13 1013.2 1013.0 0.0
29/10:00pm 26.4 28.1 21.6 75 3.2 ENE 15 28 8 15 1013.2 1013.0 0.0
29/09:30pm 26.5 28.2 21.7 75 3.2 ENE 15 24 8 13 1013.0 1012.8 0.0
29/09:00pm 26.5 28.2 21.7 75 3.2 ENE 15 22 8 12 1012.6 1012.4 0.0
29/08:30pm 26.5 28.2 21.7 75 3.2 ENE 15 26 8 14 1012.3 1012.1 0.0
29/08:00pm 26.5 28.6 21.7 75 3.2 ENE 13 24 7 13 1011.9 1011.7 0.0
29/07:30pm 26.6 28.8 21.8 75 3.2 ENE 13 26 7 14 1011.6 1011.4 0.0
29/07:00pm 26.7 28.8 21.7 74 3.3 NE 13 26 7 14 1011.4 1011.2 0.0
29/06:30pm 26.9 28.8 21.4 72 3.7 ENE 13 22 7 12 1011.1 1010.9 0.0

Other Formats:

Comma delimited format used in spreadsheet applications
http://www.bom.gov.au/fwo/IDD60801/IDD60801.94139.axf

JavaScript Object Notation format (JSON) in row-major order
http://www.bom.gov.au/fwo/IDD60801/IDD60801.94139.json